Main page
METAR-TAF:

METAR-TAF

Airports :

Helsinki Airport

Helsinki, Finland

latitude: 60-19N, longitude: 024-58E, elevation: 51 m

Current weather observation

The report was made 28 minutes ago, at 16:50 UTC
Wind 11 kt from the South/Southwest
Temperature 18°C
Humidity 34%
Pressure 1027 hPa
Visibility 10 km or more
no clouds below 1500 m and no cumulonimbus

METAR: EFHK 231650Z 21011KT CAVOK 18/02 Q1027 NOSIG

Time: 20:18 (17:18 UTC)

Forecast

The report was made 2 hours and 49 minutes ago, at 14:29 UTC
Forecast valid from 23 at 15 UTC to 24 at 15 UTC
Wind 15 kt from the South/Southwest
Visibility 10 km or more
no clouds below 1500 m and no cumulonimbus
Becoming
from 23 at 18 UTC to 23 at 20 UTC
Wind 2 kt from variable directions

TAF: EFHK 231429Z 2315/2415 21015KT CAVOK BECMG 2318/2320 VRB02KT

Weather observations and forecasts of more than 4000 airports (METAR and TAF reports).

The available stations are represented by yellow and red dots on the map.

Hover mouse over dot to see the name of the station.

Then click to see weather observations and forecasts.

To change the map : click on the green buttons with a black cross to zoom in, on the green button with a dash to zoom out, or on the green arrows for adjacent maps.


METAR-TAF: